Time;durP1;ratioP1;P1;durP2;ratioP2;P2;SDS_P1;SDS_P2;PMS_P1;PMS_P2;Temp;Humidity;BMP_temperature;BMP_pressure;BME280_temperature;BME280_humidity;BME280_pressure;Samples;Min_cycle;Max_cycle;Signal;HPM_P1;HPM_P2
2023/05/16 00:01:01;;;;;;;17.50;13.10;;;;;;;14.05;67.36;93583.75;4917795;28;20037;-74
2023/05/16 00:03:26;;;;;;;17.38;12.23;;;;;;;14.01;67.34;93571.41;4915308;28;20082;-73
2023/05/16 00:05:52;;;;;;;23.10;12.90;;;;;;;14.14;67.15;93587.03;4917062;28;20053;-73
2023/05/16 00:08:17;;;;;;;15.32;13.65;;;;;;;14.19;67.14;93589.47;4924808;28;20024;-75
2023/05/16 00:10:43;;;;;;;17.98;11.88;;;;;;;14.16;67.23;93579.47;4918216;28;20089;-73
2023/05/16 00:13:09;;;;;;;17.77;14.23;;;;;;;14.03;67.05;93542.44;4914913;28;20047;-75
2023/05/16 00:15:34;;;;;;;17.73;12.70;;;;;;;14.11;67.25;93574.38;4916724;28;20578;-75
2023/05/16 00:18:00;;;;;;;23.45;13.45;;;;;;;14.10;67.29;93566.69;4924572;28;20090;-74
2023/05/16 00:20:27;;;;;;;20.75;13.70;;;;;;;14.09;67.24;93563.22;4917370;28;20581;-73
2023/05/16 00:22:53;;;;;;;18.13;13.57;;;;;;;14.06;67.40;93560.47;4917152;28;20130;-73
2023/05/16 00:25:19;;;;;;;17.95;12.20;;;;;;;14.19;67.17;93573.44;4936488;28;20470;-74
2023/05/16 00:27:45;;;;;;;19.38;12.73;;;;;;;14.23;67.01;93568.16;4928751;28;20139;-74
2023/05/16 00:30:10;;;;;;;15.75;12.45;;;;;;;14.10;67.25;93555.97;4934241;28;20066;-75
2023/05/16 00:32:36;;;;;;;18.67;13.45;;;;;;;14.19;67.53;93567.31;4918733;28;20110;-73
2023/05/16 00:35:02;;;;;;;16.90;13.93;;;;;;;14.04;67.61;93544.75;4916159;28;20555;-75
2023/05/16 00:37:28;;;;;;;16.35;13.85;;;;;;;14.07;67.86;93548.66;4918608;28;20078;-75
2023/05/16 00:39:53;;;;;;;20.40;15.60;;;;;;;13.81;67.72;93513.53;4919900;28;20908;-73
2023/05/16 00:42:20;;;;;;;16.35;13.18;;;;;;;14.12;67.71;93557.22;4923087;28;20162;-74
2023/05/16 00:44:46;;;;;;;20.80;13.95;;;;;;;14.14;67.83;93554.19;4913696;28;20079;-75
2023/05/16 00:47:11;;;;;;;19.90;14.18;;;;;;;14.06;67.78;93531.03;4925549;28;20052;-74
2023/05/16 00:49:37;;;;;;;17.20;14.52;;;;;;;13.92;67.67;93506.59;4921960;28;20788;-74
2023/05/16 00:52:03;;;;;;;17.50;14.70;;;;;;;14.14;67.61;93530.88;4921496;28;20727;-73
2023/05/16 00:54:29;;;;;;;17.88;14.07;;;;;;;14.06;67.99;93525.69;4916181;28;20545;-73
2023/05/16 00:56:55;;;;;;;25.00;16.25;;;;;;;13.83;68.10;93498.72;4925431;28;20046;-73
2023/05/16 00:59:21;;;;;;;19.80;15.25;;;;;;;13.94;68.05;93515.03;4929351;28;20032;-74
2023/05/16 01:01:47;;;;;;;22.50;16.30;;;;;;;13.98;68.09;93516.72;4917228;28;20094;-74
2023/05/16 01:04:13;;;;;;;16.75;14.13;;;;;;;13.74;69.04;93514.91;4927491;28;20134;-74
2023/05/16 01:06:38;;;;;;;23.50;14.88;;;;;;;13.51;68.53;93470.31;4922568;28;20071;-74
2023/05/16 01:09:06;;;;;;;17.52;15.32;;;;;;;13.47;69.38;93502.25;4925154;28;20138;-75
2023/05/16 01:12:04;;;;;;;21.58;15.85;;;;;;;13.87;69.22;93526.34;4939459;28;20020;-76
2023/05/16 01:14:45;;;;;;;21.00;15.27;;;;;;;13.93;68.91;93532.22;4914936;28;20040;-75
2023/05/16 01:17:24;;;;;;;17.38;15.18;;;;;;;14.02;68.32;93528.28;4929991;28;20090;-74
2023/05/16 01:19:58;;;;;;;15.77;14.00;;;;;;;14.02;67.96;93506.88;4928406;28;20040;-74
2023/05/16 01:23:15;;;;;;;18.00;15.30;;;;;;;14.18;67.64;93520.28;4945193;28;20047;-75
2023/05/16 01:25:57;;;;;;;;;;;;;;;14.21;67.47;93522.28;4922473;28;20044;-74
2023/05/16 01:28:23;;;;;;;20.20;15.05;;;;;;;14.18;67.32;93507.69;4931022;28;20419;-75
2023/05/16 01:30:50;;;;;;;18.80;14.57;;;;;;;14.22;67.39;93507.00;4928427;28;20533;-75
2023/05/16 01:33:15;;;;;;;17.70;14.70;;;;;;;14.11;67.52;93496.81;4929345;28;20687;-76
2023/05/16 01:35:59;;;;;;;17.60;14.45;;;;;;;14.15;67.35;93499.56;4929466;28;20027;-74
2023/05/16 01:38:29;;;;;;;19.98;14.68;;;;;;;14.19;67.23;93493.19;4923248;28;20039;-74
2023/05/16 01:41:03;;;;;;;16.85;14.57;;;;;;;14.28;67.03;93495.69;4942704;28;20067;-74
2023/05/16 01:43:33;;;;;;;17.88;15.30;;;;;;;14.28;67.10;93494.94;4927587;28;20039;-74
2023/05/16 01:46:09;;;;;;;16.52;14.73;;;;;;;14.27;66.84;93494.19;4930113;28;20031;-74
2023/05/16 01:48:43;;;;;;;16.33;14.55;;;;;;;14.18;66.83;93480.16;4931424;28;20082;-74
2023/05/16 01:51:10;;;;;;;25.48;15.93;;;;;;;14.17;66.84;93475.97;4945454;28;20622;-73
2023/05/16 01:53:37;;;;;;;23.50;15.02;;;;;;;14.25;66.80;93480.34;4930154;28;20102;-74
2023/05/16 01:56:08;;;;;;;15.75;14.10;;;;;;;14.18;67.25;93482.84;4932064;28;20498;-73
2023/05/16 01:58:35;;;;;;;19.30;12.27;;;;;;;14.21;66.79;93468.00;4927323;28;20044;-74
2023/05/16 02:01:03;;;;;;;16.50;14.80;;;;;;;14.08;67.29;93460.03;4929964;28;20044;-75
2023/05/16 02:03:29;;;;;;;18.77;14.40;;;;;;;14.08;67.02;93460.03;4927911;28;20043;-74
2023/05/16 02:05:55;;;;;;;21.55;14.38;;;;;;;14.22;67.26;93486.41;4933692;28;20314;-74
2023/05/16 02:08:21;;;;;;;17.70;14.23;;;;;;;14.18;67.08;93485.50;4929751;28;20502;-74
2023/05/16 02:10:46;;;;;;;16.08;14.38;;;;;;;14.12;67.37;93482.34;4930549;28;20135;-74
2023/05/16 02:13:12;;;;;;;16.85;14.30;;;;;;;13.95;67.87;93469.25;4930699;28;20114;-74
2023/05/16 02:15:37;;;;;;;24.30;14.38;;;;;;;13.98;67.78;93465.91;4931078;28;20036;-74
2023/05/16 02:18:03;;;;;;;18.35;15.25;;;;;;;14.08;67.10;93464.66;4930084;28;20039;-73
2023/05/16 02:20:28;;;;;;;16.42;13.43;;;;;;;13.96;67.78;93473.50;4933000;28;20162;-74
2023/05/16 02:22:53;;;;;;;17.45;14.70;;;;;;;13.99;67.81;93469.34;4931665;28;20521;-74
2023/05/16 02:25:19;;;;;;;16.60;14.20;;;;;;;13.99;67.77;93458.66;4929816;28;20093;-75
2023/05/16 02:27:44;;;;;;;17.42;13.95;;;;;;;13.96;67.60;93470.81;4930963;28;20130;-74
2023/05/16 02:30:11;;;;;;;20.95;13.77;;;;;;;14.02;67.78;93471.34;4929130;28;20700;-75
2023/05/16 02:32:38;;;;;;;15.70;13.18;;;;;;;13.94;67.61;93451.66;4932830;28;20101;-74
2023/05/16 02:35:04;;;;;;;15.77;12.98;;;;;;;14.04;67.67;93472.56;4930640;28;20357;-75
2023/05/16 02:37:29;;;;;;;17.98;13.32;;;;;;;13.94;68.12;93481.06;4931594;28;20035;-73
2023/05/16 02:39:55;;;;;;;18.02;13.68;;;;;;;14.02;67.66;93482.03;4928861;28;20650;-75
2023/05/16 02:42:21;;;;;;;18.27;14.75;;;;;;;13.88;68.40;93485.13;4931021;28;20047;-73
2023/05/16 02:44:46;;;;;;;15.98;13.77;;;;;;;13.84;68.16;93475.47;4932361;28;20118;-74
2023/05/16 02:47:11;;;;;;;18.85;14.55;;;;;;;13.68;68.75;93464.72;4930826;28;20031;-74
2023/05/16 02:49:37;;;;;;;14.93;13.43;;;;;;;13.73;68.92;93475.16;4930740;28;20352;-74
2023/05/16 02:52:03;;;;;;;16.58;14.52;;;;;;;13.66;69.05;93461.59;4929249;28;20035;-73
2023/05/16 02:54:28;;;;;;;16.05;14.15;;;;;;;13.67;69.03;93450.56;4929579;28;20122;-75
2023/05/16 02:56:53;;;;;;;15.45;13.85;;;;;;;13.83;68.70;93463.22;4929200;28;20036;-73
2023/05/16 02:59:19;;;;;;;15.95;13.20;;;;;;;13.88;68.63;93470.97;4929848;28;20027;-75
2023/05/16 03:01:44;;;;;;;16.00;13.45;;;;;;;13.96;67.65;93459.34;4928220;28;20039;-73
2023/05/16 03:04:10;;;;;;;18.40;13.75;;;;;;;13.95;67.97;93457.78;4928787;28;20061;-74
2023/05/16 03:06:35;;;;;;;13.68;12.32;;;;;;;14.07;67.47;93463.88;4929608;28;20032;-74
2023/05/16 03:09:01;;;;;;;15.90;13.25;;;;;;;13.89;68.24;93461.81;4929375;28;20047;-75
2023/05/16 03:11:27;;;;;;;21.08;14.73;;;;;;;13.85;68.26;93450.25;4930003;28;20441;-74
2023/05/16 03:13:55;;;;;;;15.98;13.23;;;;;;;13.94;67.95;93464.25;4929172;28;20601;-74
2023/05/16 03:16:20;;;;;;;16.33;12.00;;;;;;;13.91;67.87;93462.28;4927368;28;20510;-75
2023/05/16 03:18:46;;;;;;;14.35;12.85;;;;;;;13.95;67.85;93463.13;4928515;28;20087;-74
2023/05/16 03:21:12;;;;;;;16.27;13.20;;;;;;;13.99;68.09;93472.03;4927379;28;20502;-75
2023/05/16 03:23:37;;;;;;;16.45;12.70;;;;;;;14.00;67.77;93468.22;4943473;28;20494;-74
2023/05/16 03:26:03;;;;;;;16.77;13.38;;;;;;;14.02;67.99;93474.81;4927319;28;20122;-74
2023/05/16 03:28:28;;;;;;;23.13;13.25;;;;;;;14.06;67.89;93472.22;4943666;28;20114;-74
2023/05/16 03:30:54;;;;;;;15.18;12.57;;;;;;;14.08;67.63;93464.66;4928482;28;20040;-74
2023/05/16 03:33:19;;;;;;;18.85;13.55;;;;;;;14.04;67.71;93447.72;4943080;28;20514;-74
2023/05/16 03:35:45;;;;;;;16.30;12.95;;;;;;;13.93;67.55;93433.31;4930957;28;20027;-75
2023/05/16 03:38:11;;;;;;;18.85;13.13;;;;;;;14.04;67.71;93448.50;4929697;28;20019;-74
2023/05/16 03:40:36;;;;;;;17.90;13.95;;;;;;;13.94;67.76;93440.97;4929636;28;20043;-74
2023/05/16 03:43:02;;;;;;;15.48;13.88;;;;;;;13.85;68.20;93444.91;4944301;28;20038;-73
2023/05/16 03:45:29;;;;;;;25.92;13.90;;;;;;;13.99;67.95;93453.31;4937713;28;20039;-74
2023/05/16 03:47:55;;;;;;;16.00;12.98;;;;;;;14.01;68.25;93459.09;4929487;28;20307;-75
2023/05/16 03:50:21;;;;;;;18.17;13.65;;;;;;;13.94;67.95;93440.97;4929541;28;20244;-74
2023/05/16 03:52:46;;;;;;;16.95;13.43;;;;;;;14.06;68.18;93456.94;4942539;28;20035;-74
2023/05/16 03:55:13;;;;;;;18.17;14.10;;;;;;;14.06;67.80;93456.19;4927764;28;20048;-76
2023/05/16 03:57:41;;;;;;;15.50;13.25;;;;;;;14.10;67.84;93459.72;4929143;28;20848;-73
2023/05/16 04:00:07;;;;;;;14.00;12.60;;;;;;;14.18;67.54;93458.75;4927030;28;20579;-75
2023/05/16 04:02:33;;;;;;;17.52;12.45;;;;;;;14.15;67.43;93454.13;4945211;28;20178;-74
2023/05/16 04:04:58;;;;;;;18.10;13.40;;;;;;;13.97;67.79;93434.16;4929015;28;20031;-74
2023/05/16 04:07:24;;;;;;;23.10;14.65;;;;;;;14.13;67.79;93451.78;4929655;28;20074;-73
2023/05/16 04:09:50;;;;;;;18.35;12.90;;;;;;;14.07;67.78;93444.38;4928092;28;20465;-75
2023/05/16 04:12:16;;;;;;;20.42;14.00;;;;;;;14.10;67.99;93457.81;4931237;28;20579;-74
2023/05/16 04:14:41;;;;;;;19.05;14.38;;;;;;;14.10;67.87;93463.16;4928415;28;20035;-75
2023/05/16 04:17:07;;;;;;;17.83;13.75;;;;;;;14.11;68.10;93447.91;4944975;28;20143;-75
2023/05/16 04:19:32;;;;;;;16.80;13.80;;;;;;;14.17;68.13;93467.94;4934786;28;20146;-72
2023/05/16 04:21:57;;;;;;;22.10;14.88;;;;;;;14.05;67.82;93454.63;4931303;28;20035;-75
2023/05/16 04:24:25;;;;;;;15.23;13.65;;;;;;;14.08;68.35;93459.28;4928839;28;20078;-74
2023/05/16 04:26:51;;;;;;;19.23;14.90;;;;;;;13.82;68.18;93461.66;4929815;28;20078;-74
2023/05/16 04:29:16;;;;;;;24.05;15.88;;;;;;;13.01;71.71;93465.41;4932804;28;20028;-74
2023/05/16 04:31:42;;;;;;;23.50;16.15;;;;;;;12.36;74.28;93451.19;4926030;28;20043;-74
2023/05/16 04:34:07;;;;;;;20.25;14.18;;;;;;;12.70;73.36;93445.44;4929765;28;20036;-74
2023/05/16 04:36:34;;;;;;;26.92;16.98;;;;;;;13.22;72.21;93450.03;4927688;28;20043;-74
2023/05/16 04:38:59;;;;;;;18.95;16.05;;;;;;;13.53;70.82;93455.50;4928340;28;20043;-74
2023/05/16 04:41:25;;;;;;;20.00;15.82;;;;;;;13.63;70.43;93452.38;4928591;28;20058;-75
2023/05/16 04:43:50;;;;;;;16.85;14.45;;;;;;;13.64;70.27;93451.25;4929675;28;20178;-74
2023/05/16 04:46:16;;;;;;;18.08;14.68;;;;;;;13.64;69.58;93427.19;4942519;28;20094;-74
2023/05/16 04:48:41;;;;;;;17.42;15.10;;;;;;;13.81;69.30;93436.03;4928871;28;20402;-74
2023/05/16 04:51:07;;;;;;;24.63;15.25;;;;;;;13.96;68.81;93435.28;4927269;28;20043;-73
2023/05/16 04:53:32;;;;;;;16.88;14.52;;;;;;;13.97;68.64;93420.81;4928709;28;20024;-72
2023/05/16 04:55:59;;;;;;;19.80;16.58;;;;;;;14.11;68.42;93437.22;4929058;28;20115;-74
2023/05/16 04:58:24;;;;;;;22.55;15.23;;;;;;;14.27;67.83;93440.69;4928884;28;20039;-74
2023/05/16 05:00:54;;;;;;;21.45;14.85;;;;;;;14.20;67.15;93424.44;4926208;28;20044;-75
2023/05/16 05:03:20;;;;;;;19.50;16.70;;;;;;;14.25;67.51;93437.56;4929372;28;20065;-74
2023/05/16 05:05:46;;;;;;;22.27;14.30;;;;;;;14.34;68.02;93443.50;4926159;28;20640;-75
2023/05/16 05:08:12;;;;;;;16.17;14.40;;;;;;;14.35;67.68;93447.75;4929071;28;20027;-74
2023/05/16 05:10:37;;;;;;;29.13;14.80;;;;;;;14.40;67.26;93441.34;4929326;28;20562;-75
2023/05/16 05:13:03;;;;;;;18.48;14.13;;;;;;;14.39;67.09;93453.19;4927021;28;20039;-73
2023/05/16 05:15:29;;;;;;;19.77;14.43;;;;;;;14.39;68.03;93458.53;4943726;28;20044;-73
2023/05/16 05:17:55;;;;;;;17.05;14.55;;;;;;;14.32;68.11;93453.03;4925498;28;20190;-73
2023/05/16 05:20:20;;;;;;;15.55;13.90;;;;;;;14.25;68.78;93448.25;4935248;28;20043;-75
2023/05/16 05:22:46;;;;;;;20.55;14.20;;;;;;;14.16;69.02;93437.72;4925746;28;20365;-74
2023/05/16 05:25:11;;;;;;;16.60;14.40;;;;;;;14.21;69.18;93436.69;4925145;28;20190;-75
2023/05/16 05:27:37;;;;;;;17.30;13.60;;;;;;;14.30;69.18;93445.31;4931172;28;20407;-76
2023/05/16 05:30:03;;;;;;;23.23;15.25;;;;;;;14.08;69.15;93438.66;4938021;28;20047;-74
2023/05/16 05:32:28;;;;;;;22.90;13.75;;;;;;;14.15;69.44;93443.41;4928681;28;20028;-75
2023/05/16 05:34:54;;;;;;;18.13;14.38;;;;;;;14.16;69.35;93428.94;4926826;28;20082;-76
2023/05/16 05:37:20;;;;;;;23.20;15.40;;;;;;;14.24;69.67;93427.97;4928986;28;20040;-73
2023/05/16 05:39:45;;;;;;;20.70;14.50;;;;;;;14.26;69.72;93423.06;4926032;28;20098;-75
2023/05/16 05:42:11;;;;;;;17.38;14.65;;;;;;;14.25;69.67;93402.78;4927409;28;20052;-75
2023/05/16 05:44:36;;;;;;;17.60;14.25;;;;;;;14.29;69.06;93421.59;4924489;28;20079;-74
2023/05/16 05:47:33;;;;;;;18.73;14.63;;;;;;;14.21;68.86;93415.31;4928837;28;20044;-75
2023/05/16 05:49:58;;;;;;;18.67;14.07;;;;;;;14.10;68.93;93385.63;4926365;28;20042;-74
2023/05/16 05:52:24;;;;;;;21.67;13.70;;;;;;;14.40;68.36;93411.94;4943143;28;20047;-76
2023/05/16 05:54:49;;;;;;;18.80;13.52;;;;;;;14.46;68.31;93405.19;4940836;28;20133;-74
2023/05/16 05:57:15;;;;;;;22.60;14.40;;;;;;;14.31;68.55;93414.78;4928845;28;20047;-74
2023/05/16 05:59:40;;;;;;;18.17;14.55;;;;;;;14.38;68.25;93398.91;4927310;28;20035;-75
2023/05/16 06:02:07;;;;;;;22.88;14.40;;;;;;;14.51;68.25;93408.41;4928075;28;20043;-74
2023/05/16 06:04:32;;;;;;;19.70;14.18;;;;;;;14.33;68.13;93395.69;4944108;28;20122;-74
2023/05/16 06:06:57;;;;;;;22.55;14.43;;;;;;;14.47;68.01;93412.88;4931787;28;20891;-75
2023/05/16 06:09:23;;;;;;;20.95;13.80;;;;;;;14.54;67.44;93404.28;4928380;28;20051;-75
2023/05/16 06:11:49;;;;;;;22.75;13.95;;;;;;;14.50;67.20;93420.22;4945436;28;20039;-75
2023/05/16 06:14:15;;;;;;;18.27;13.90;;;;;;;14.46;67.33;93411.34;4931181;28;20067;-75
2023/05/16 06:16:40;;;;;;;16.20;12.18;;;;;;;14.36;67.43;93398.47;4929456;28;20044;-75
2023/05/16 06:19:06;;;;;;;23.13;12.77;;;;;;;14.30;68.31;93425.81;4927300;28;20187;-75
2023/05/16 06:21:32;;;;;;;27.30;13.55;;;;;;;13.83;69.04;93433.81;4930810;28;20039;-74
2023/05/16 06:23:57;;;;;;;24.05;13.23;;;;;;;13.41;70.13;93418.13;4930721;28;20059;-74
2023/05/16 06:26:23;;;;;;;16.33;12.68;;;;;;;13.62;70.87;93423.31;4927570;28;20035;-75
2023/05/16 06:28:48;;;;;;;24.60;13.05;;;;;;;13.91;70.15;93416.81;4932435;28;20579;-75
2023/05/16 06:31:14;;;;;;;24.83;13.32;;;;;;;13.29;70.41;93412.84;4928439;28;20776;-74
2023/05/16 06:33:39;;;;;;;22.98;13.73;;;;;;;13.16;72.26;93392.63;4931947;28;20558;-75
2023/05/16 06:36:05;;;;;;;25.83;13.18;;;;;;;13.23;72.64;93401.63;4927736;28;20047;-74
2023/05/16 06:38:31;;;;;;;22.10;13.18;;;;;;;13.24;72.29;93389.06;4930237;28;20110;-75
2023/05/16 06:40:56;;;;;;;20.95;13.05;;;;;;;13.09;72.65;93368.41;4927595;28;20052;-76
2023/05/16 06:43:22;;;;;;;20.98;13.50;;;;;;;12.80;73.96;93356.94;4930300;28;20039;-75
2023/05/16 06:45:47;;;;;;;18.42;14.25;;;;;;;12.55;75.08;93367.94;4931272;28;20454;-75
2023/05/16 06:48:14;;;;;;;23.70;13.45;;;;;;;12.91;74.01;93367.13;4931052;28;20035;-77
2023/05/16 06:50:39;;;;;;;24.85;13.38;;;;;;;12.49;75.41;93351.38;4929636;28;20207;-74
2023/05/16 06:53:06;;;;;;;17.88;11.80;;;;;;;13.11;73.30;93358.16;4928631;28;20028;-73
2023/05/16 06:55:32;;;;;;;16.77;12.10;;;;;;;12.84;73.72;93359.69;4929051;28;20090;-75
2023/05/16 06:57:57;;;;;;;16.98;11.63;;;;;;;12.56;74.73;93340.94;4928886;28;20043;-73
2023/05/16 07:00:23;;;;;;;28.58;13.80;;;;;;;11.75;77.53;93341.81;4928698;28;20043;-75
2023/05/16 07:02:49;;;;;;;25.95;13.40;;;;;;;11.34;78.98;93320.66;4929118;28;20031;-75
2023/05/16 07:05:14;;;;;;;17.80;12.50;;;;;;;11.46;79.40;93349.94;4941842;28;20402;-75
2023/05/16 07:07:40;;;;;;;18.20;11.95;;;;;;;11.48;79.46;93339.75;4926789;28;20040;-75
2023/05/16 07:10:05;;;;;;;20.00;12.00;;;;;;;11.45;79.73;93348.38;4927417;28;20035;-74
2023/05/16 07:12:31;;;;;;;20.20;11.85;;;;;;;11.16;79.85;93318.16;4924941;28;20051;-76
2023/05/16 07:14:56;;;;;;;18.88;12.40;;;;;;;11.43;79.68;93329.31;4926581;28;20046;-75
2023/05/16 07:17:22;;;;;;;22.90;12.15;;;;;;;11.47;79.23;93341.66;4927880;28;20224;-75
2023/05/16 07:19:48;;;;;;;19.80;12.02;;;;;;;11.44;78.86;93325.56;4925814;28;20490;-75
2023/05/16 07:22:14;;;;;;;22.48;11.02;;;;;;;11.28;78.55;93282.81;4927078;28;20047;-76
2023/05/16 07:24:39;;;;;;;19.88;11.45;;;;;;;11.61;78.58;93320.06;4928398;28;20036;-75
2023/05/16 07:27:05;;;;;;;20.67;12.05;;;;;;;11.76;77.96;93330.06;4927024;28;20031;-75
2023/05/16 07:29:30;;;;;;;25.33;11.35;;;;;;;11.85;77.83;93325.41;4929280;28;20075;-75
2023/05/16 07:31:55;;;;;;;15.75;11.85;;;;;;;12.32;77.03;93332.97;4930968;28;20552;-75
2023/05/16 07:34:21;;;;;;;24.20;12.43;;;;;;;12.04;76.51;93336.31;4928485;28;20047;-72
2023/05/16 07:36:47;;;;;;;18.58;11.48;;;;;;;12.12;76.71;93355.97;4929361;28;20054;-74
2023/05/16 07:39:13;;;;;;;18.58;12.55;;;;;;;12.53;77.05;93360.25;4928043;28;20170;-76
2023/05/16 07:41:38;;;;;;;16.73;11.60;;;;;;;12.72;74.82;93363.16;4929063;28;20794;-74
2023/05/16 07:44:04;;;;;;;16.98;10.63;;;;;;;12.74;73.40;93382.28;4928644;28;20031;-74
2023/05/16 07:46:29;;;;;;;16.50;11.35;;;;;;;13.17;73.00;93378.94;4929344;28;20043;-74
2023/05/16 07:48:55;;;;;;;23.45;12.40;;;;;;;13.29;72.39;93372.78;4929405;28;20605;-74
2023/05/16 07:51:20;;;;;;;21.55;11.82;;;;;;;13.59;71.92;93368.66;4930004;28;20047;-74
2023/05/16 07:53:46;;;;;;;22.10;11.73;;;;;;;13.38;71.23;93375.31;4935933;28;20044;-74
2023/05/16 07:56:11;;;;;;;15.80;10.75;;;;;;;13.47;70.46;93354.56;4929098;28;20027;-74
2023/05/16 07:58:37;;;;;;;12.55;10.40;;;;;;;13.41;70.63;93354.03;4945553;28;20035;-74
2023/05/16 08:01:03;;;;;;;16.52;10.80;;;;;;;13.74;70.98;93343.84;4926933;28;20039;-75
2023/05/16 08:03:29;;;;;;;17.65;11.60;;;;;;;13.42;70.56;93344.91;4928565;28;20410;-76
2023/05/16 08:05:54;;;;;;;25.35;11.82;;;;;;;13.15;71.58;93343.03;4931950;28;20119;-75
2023/05/16 08:08:20;;;;;;;15.93;9.70;;;;;;;12.82;71.20;93336.00;4930245;28;20655;-75
2023/05/16 08:10:46;;;;;;;16.15;10.95;;;;;;;12.72;72.88;93325.81;4928144;28;20510;-75
2023/05/16 08:13:11;;;;;;;20.27;11.45;;;;;;;12.65;73.15;93311.50;4926657;28;20043;-75
2023/05/16 08:15:36;;;;;;;13.63;10.10;;;;;;;12.86;72.37;93333.44;4943422;28;20934;-74
2023/05/16 08:18:02;;;;;;;14.30;10.38;;;;;;;12.80;72.14;93310.78;4928814;28;20038;-75
2023/05/16 08:20:28;;;;;;;23.13;11.52;;;;;;;12.88;71.68;93312.53;4926984;28;20406;-75
2023/05/16 08:22:54;;;;;;;20.17;10.63;;;;;;;12.84;72.06;93309.78;4926413;28;20065;-74
2023/05/16 08:25:19;;;;;;;24.85;9.82;;;;;;;12.91;71.99;93316.44;4923876;28;20051;-75
2023/05/16 08:27:45;;;;;;;19.17;10.27;;;;;;;12.89;71.50;93314.09;4928420;28;20576;-76
2023/05/16 08:30:11;;;;;;;22.90;11.02;;;;;;;13.04;71.93;93309.91;4929590;28;20035;-75
2023/05/16 08:32:37;;;;;;;14.90;9.63;;;;;;;13.07;71.62;93304.66;4925793;28;20087;-73
2023/05/16 08:35:03;;;;;;;18.48;10.75;;;;;;;13.05;71.66;93309.59;4927032;28;20182;-75
2023/05/16 08:37:28;;;;;;;16.23;9.48;;;;;;;13.15;71.16;93311.00;4928338;28;20048;-74
2023/05/16 08:39:54;;;;;;;16.45;9.73;;;;;;;13.17;71.51;93319.41;4927688;28;20478;-75
2023/05/16 08:42:19;;;;;;;15.93;10.43;;;;;;;13.09;70.98;93273.09;4927970;28;20442;-75
2023/05/16 08:44:45;;;;;;;23.08;9.77;;;;;;;13.27;70.73;93278.88;4933028;28;20030;-75
2023/05/16 08:47:16;;;;;;;17.35;9.98;;;;;;;13.51;69.92;93299.31;4928376;28;20041;-73
2023/05/16 08:49:43;;;;;;;13.57;9.52;;;;;;;13.57;69.27;93289.94;4926867;28;20113;-74
2023/05/16 08:52:10;;;;;;;19.20;9.27;;;;;;;13.59;70.03;93299.19;4928443;28;20039;-75
2023/05/16 08:54:36;;;;;;;18.45;10.50;;;;;;;13.93;70.04;93308.44;4926174;28;20119;-74
2023/05/16 08:57:04;;;;;;;16.73;9.63;;;;;;;14.13;69.53;93311.97;4928817;28;20039;-75
2023/05/16 08:59:30;;;;;;;18.58;9.73;;;;;;;14.29;68.53;93328.75;4926616;28;20670;-76
2023/05/16 09:01:56;;;;;;;14.05;9.40;;;;;;;14.61;68.24;93326.84;4925651;28;20145;-76
2023/05/16 09:04:24;;;;;;;11.40;9.60;;;;;;;14.91;67.48;93319.81;4930001;28;20125;-73
2023/05/16 09:06:49;;;;;;;12.88;8.32;;;;;;;15.31;68.50;93340.88;4942993;28;20154;-76
2023/05/16 09:09:15;;;;;;;10.75;8.85;;;;;;;15.23;65.29;93333.84;4926827;28;20415;-76
2023/05/16 09:11:41;;;;;;;12.80;9.25;;;;;;;15.31;64.04;93306.06;4944000;28;20031;-76
2023/05/16 09:14:06;;;;;;;16.15;9.40;;;;;;;14.93;64.19;93239.91;4925429;28;20027;-75
2023/05/16 09:16:32;;;;;;;13.68;8.93;;;;;;;15.22;64.54;93326.94;4927708;28;20114;-72
2023/05/16 09:18:59;;;;;;;18.70;8.85;;;;;;;14.66;65.72;93331.91;4926173;28;20126;-75
2023/05/16 09:21:30;;;;;;;14.88;9.20;;;;;;;14.58;66.88;93316.81;4925685;28;20135;-76
2023/05/16 09:24:01;;;;;;;26.13;10.02;;;;;;;15.01;66.35;93342.56;4941045;28;20518;-74
2023/05/16 09:26:27;;;;;;;20.75;8.90;;;;;;;15.07;65.37;93317.06;4926200;28;20070;-73
2023/05/16 09:28:54;;;;;;;12.13;9.00;;;;;;;15.28;64.95;93335.47;4928590;28;20044;-73
2023/05/16 09:31:25;;;;;;;14.55;8.70;;;;;;;15.63;64.94;93338.84;4927461;28;20040;-74
2023/05/16 09:33:59;;;;;;;12.95;9.40;;;;;;;15.59;64.43;93305.06;4929100;28;20048;-74
2023/05/16 09:36:25;;;;;;;16.55;9.10;;;;;;;15.85;65.95;93310.50;4928528;28;20036;-75
2023/05/16 09:38:51;;;;;;;14.57;8.57;;;;;;;15.91;62.87;93322.47;4932495;28;20035;-75
2023/05/16 09:41:16;;;;;;;14.60;7.72;;;;;;;15.77;64.06;93304.25;4931393;28;20110;-76
2023/05/16 09:43:43;;;;;;;10.80;8.55;;;;;;;16.08;61.84;93307.81;4933935;28;20043;-75
2023/05/16 09:46:13;;;;;;;14.73;9.90;;;;;;;15.89;63.00;93308.63;4930691;28;20036;-75
2023/05/16 09:48:47;;;;;;;14.75;8.77;;;;;;;15.82;64.17;93308.53;4930891;28;20040;-74
2023/05/16 09:51:13;;;;;;;10.90;8.63;;;;;;;16.20;63.13;93313.75;4933887;28;20184;-77
2023/05/16 09:53:40;;;;;;;14.13;8.80;;;;;;;16.19;62.81;93328.28;4932650;28;20027;-75
2023/05/16 09:56:15;;;;;;;20.13;9.38;;;;;;;15.89;61.20;93322.03;4931153;28;20810;-75
2023/05/16 09:58:43;;;;;;;18.48;9.48;;;;;;;15.76;62.30;93307.28;4933005;28;20180;-75
2023/05/16 10:01:09;;;;;;;20.55;9.80;;;;;;;15.62;63.08;93307.81;4930795;28;20454;-75
2023/05/16 10:03:37;;;;;;;11.18;9.00;;;;;;;16.03;63.00;93319.63;4932337;28;20055;-73
2023/05/16 10:06:04;;;;;;;16.77;10.30;;;;;;;15.78;63.06;93305.03;4931525;28;20083;-74
2023/05/16 10:08:34;;;;;;;13.70;10.07;;;;;;;16.12;62.81;93322.06;4947882;28;20065;-74
2023/05/16 10:11:01;;;;;;;18.70;10.05;;;;;;;15.43;64.67;93324.66;4931566;28;20098;-75
2023/05/16 10:13:32;;;;;;;12.07;9.10;;;;;;;15.20;65.18;93310.47;4929791;28;20027;-74
2023/05/16 10:16:00;;;;;;;11.80;9.60;;;;;;;15.21;66.29;93319.25;4933809;28;20032;-74
2023/05/16 10:18:31;;;;;;;16.73;9.32;;;;;;;15.15;65.54;93329.50;4929134;28;20067;-75
2023/05/16 10:21:05;;;;;;;11.90;9.68;;;;;;;15.09;65.58;93338.94;4930864;28;20050;-74
2023/05/16 10:23:33;;;;;;;16.92;9.88;;;;;;;15.24;65.33;93330.03;4930140;28;20043;-75
2023/05/16 10:26:02;;;;;;;16.80;9.93;;;;;;;14.97;66.00;93313.06;4931335;28;20039;-75
2023/05/16 10:28:28;;;;;;;14.65;10.05;;;;;;;15.13;66.43;93331.72;4930663;28;20082;-75
2023/05/16 10:30:54;;;;;;;20.25;10.43;;;;;;;14.93;66.34;93328.28;4930172;28;20126;-75
2023/05/16 10:33:20;;;;;;;19.10;10.65;;;;;;;14.57;67.68;93299.97;4943763;28;20059;-75
2023/05/16 10:35:46;;;;;;;19.92;11.52;;;;;;;14.64;68.23;93298.59;4932496;28;20074;-75
2023/05/16 10:38:15;;;;;;;17.58;12.75;;;;;;;14.67;67.96;93308.59;4929369;28;20034;-75
2023/05/16 10:40:41;;;;;;;25.58;10.93;;;;;;;14.59;68.33;93303.09;4930378;28;20067;-75
2023/05/16 10:43:08;;;;;;;15.30;11.30;;;;;;;14.76;68.72;93290.44;4923495;28;20079;-75
2023/05/16 10:45:35;;;;;;;16.70;11.20;;;;;;;14.64;68.37;93277.97;4930868;28;20032;-74
2023/05/16 10:48:05;;;;;;;13.20;9.88;;;;;;;14.82;67.30;93283.66;4932837;28;20058;-74
2023/05/16 10:50:40;;;;;;;15.23;11.05;;;;;;;14.85;67.88;93288.31;4929729;28;20086;-76
2023/05/16 10:53:27;;;;;;;20.05;11.23;;;;;;;14.95;67.95;93285.09;4930048;28;20052;-75
2023/05/16 10:55:59;;;;;;;20.10;10.40;;;;;;;15.13;68.33;93283.53;4929042;28;20756;-74
2023/05/16 10:58:40;;;;;;;18.27;10.05;;;;;;;15.19;66.12;93287.47;4943949;28;20039;-74
2023/05/16 11:01:14;;;;;;;20.65;11.15;;;;;;;15.29;67.31;93291.47;4928422;28;20130;-76
2023/05/16 11:04:06;;;;;;;15.50;10.88;;;;;;;15.25;66.08;93286.06;4946548;28;20510;-75
2023/05/16 11:06:49;;;;;;;15.57;9.98;;;;;;;15.43;66.10;93297.09;4928658;28;20050;-75
2023/05/16 11:09:25;;;;;;;14.70;10.60;;;;;;;15.65;64.93;93303.63;4929315;28;20689;-76
2023/05/16 11:11:51;;;;;;;16.13;11.20;;;;;;;15.59;65.04;93300.50;4929281;28;20027;-74
2023/05/16 11:14:22;;;;;;;16.00;10.05;;;;;;;15.42;65.06;93311.63;4925987;28;20489;-76
2023/05/16 11:16:54;;;;;;;19.45;10.43;;;;;;;15.77;64.94;93323.00;4931005;28;20054;-75
2023/05/16 11:19:32;;;;;;;18.30;10.50;;;;;;;15.89;64.55;93324.72;4942775;28;20292;-73